Archival Weather

Republic

Farmingdale, New York (KFRG)

Report from: Wednesday, February 14, 2024 9:53 PM EST
Current time: Friday, June 14, 2024 7:43 AM EDT

Current weather – Weather history – Daily summaries
Weather forecast

Temperature-1.1°C (30.0°F)
Wind chill-7.2°C (19.1°F)
Dew point-12.2°C (10.0°F)
Winds 13 kts (6.7 m/s, 15 mph) Northwest (320°)
Wind gusts 23 kts (11.8 m/s, 26.5 mph)
Visibility10 mi. (16.1 km)
Clouds Sky clear
Altimeter30.10 in.Hg (1019 mB)
Relative humidity43 %
Density altitude-2,139 ft. (-652 m)
Sea-level pressure101.9 kPa (1019 mB, 30.10 in.Hg)
Remarks Automated weather observing station without precipitation discriminator
Pressure rising more slowly
Flight conditions Visual Meteorological Conditions
Raw dataKFRG 150253Z 32013G23KT 10SM CLR M01/M12 A3010 RMK AO1 SLP194 T10111122 51007
An error has occurred. This application may no longer respond until reloaded. Reload 🗙